sensor_id;sensor_type;location;lat;lon;timestamp;P1;durP1;ratioP1;P2;durP2;ratioP2
71106;SDS011;58763;47.982;11.516;2022-12-18T00:01:56;49.97;;;20.27;;
71106;SDS011;58763;47.982;11.516;2022-12-18T00:04:22;49.63;;;19.00;;
71106;SDS011;58763;47.982;11.516;2022-12-18T00:06:49;49.92;;;19.42;;
71106;SDS011;58763;47.982;11.516;2022-12-18T00:09:15;49.78;;;19.33;;
71106;SDS011;58763;47.982;11.516;2022-12-18T00:11:41;47.42;;;18.83;;
71106;SDS011;58763;47.982;11.516;2022-12-18T00:14:07;47.08;;;17.73;;
71106;SDS011;58763;47.982;11.516;2022-12-18T00:16:34;51.15;;;19.48;;
71106;SDS011;58763;47.982;11.516;2022-12-18T00:19:02;51.90;;;18.92;;
71106;SDS011;58763;47.982;11.516;2022-12-18T00:21:32;48.60;;;18.27;;
71106;SDS011;58763;47.982;11.516;2022-12-18T00:23:59;53.13;;;19.55;;
71106;SDS011;58763;47.982;11.516;2022-12-18T00:26:26;54.72;;;18.85;;
71106;SDS011;58763;47.982;11.516;2022-12-18T00:29:03;56.80;;;18.92;;
71106;SDS011;58763;47.982;11.516;2022-12-18T00:31:32;53.35;;;18.83;;
71106;SDS011;58763;47.982;11.516;2022-12-18T00:33:59;52.72;;;17.30;;
71106;SDS011;58763;47.982;11.516;2022-12-18T00:36:26;47.53;;;19.00;;
71106;SDS011;58763;47.982;11.516;2022-12-18T00:38:57;55.30;;;17.85;;
71106;SDS011;58763;47.982;11.516;2022-12-18T00:41:24;57.80;;;18.95;;
71106;SDS011;58763;47.982;11.516;2022-12-18T00:44:09;49.13;;;18.02;;
71106;SDS011;58763;47.982;11.516;2022-12-18T00:46:37;50.53;;;18.65;;
71106;SDS011;58763;47.982;11.516;2022-12-18T00:49:02;51.08;;;18.08;;
71106;SDS011;58763;47.982;11.516;2022-12-18T00:51:28;52.13;;;18.77;;
71106;SDS011;58763;47.982;11.516;2022-12-18T00:53:54;52.25;;;18.98;;
71106;SDS011;58763;47.982;11.516;2022-12-18T00:56:20;53.40;;;17.10;;
71106;SDS011;58763;47.982;11.516;2022-12-18T00:58:45;48.55;;;17.83;;
71106;SDS011;58763;47.982;11.516;2022-12-18T01:01:11;50.97;;;17.70;;
71106;SDS011;58763;47.982;11.516;2022-12-18T01:03:36;56.75;;;17.13;;
71106;SDS011;58763;47.982;11.516;2022-12-18T01:06:06;46.92;;;17.02;;
71106;SDS011;58763;47.982;11.516;2022-12-18T01:08:32;48.92;;;17.60;;
71106;SDS011;58763;47.982;11.516;2022-12-18T01:10:58;42.83;;;16.00;;
71106;SDS011;58763;47.982;11.516;2022-12-18T01:13:24;46.47;;;16.52;;
71106;SDS011;58763;47.982;11.516;2022-12-18T01:15:49;41.00;;;16.48;;
71106;SDS011;58763;47.982;11.516;2022-12-18T01:18:15;47.83;;;16.55;;
71106;SDS011;58763;47.982;11.516;2022-12-18T01:20:41;44.58;;;16.65;;
71106;SDS011;58763;47.982;11.516;2022-12-18T01:23:06;50.38;;;16.75;;
71106;SDS011;58763;47.982;11.516;2022-12-18T01:25:35;43.88;;;16.23;;
71106;SDS011;58763;47.982;11.516;2022-12-18T01:28:02;49.28;;;17.42;;
71106;SDS011;58763;47.982;11.516;2022-12-18T01:30:27;47.58;;;17.33;;
71106;SDS011;58763;47.982;11.516;2022-12-18T01:32:53;46.35;;;17.02;;
71106;SDS011;58763;47.982;11.516;2022-12-18T01:35:19;42.28;;;15.60;;
71106;SDS011;58763;47.982;11.516;2022-12-18T01:37:44;48.42;;;16.70;;
71106;SDS011;58763;47.982;11.516;2022-12-18T01:40:10;46.00;;;16.45;;
71106;SDS011;58763;47.982;11.516;2022-12-18T01:42:36;45.03;;;14.82;;
71106;SDS011;58763;47.982;11.516;2022-12-18T01:48:14;47.05;;;16.30;;
71106;SDS011;58763;47.982;11.516;2022-12-18T01:50:32;45.42;;;14.95;;
71106;SDS011;58763;47.982;11.516;2022-12-18T01:55:56;42.75;;;15.63;;
71106;SDS011;58763;47.982;11.516;2022-12-18T01:58:24;44.85;;;15.98;;
71106;SDS011;58763;47.982;11.516;2022-12-18T02:01:04;41.38;;;14.80;;
71106;SDS011;58763;47.982;11.516;2022-12-18T02:03:30;51.20;;;17.52;;
71106;SDS011;58763;47.982;11.516;2022-12-18T02:19:34;45.15;;;15.27;;
71106;SDS011;58763;47.982;11.516;2022-12-18T02:24:35;48.20;;;15.68;;
71106;SDS011;58763;47.982;11.516;2022-12-18T02:27:10;46.53;;;15.35;;
71106;SDS011;58763;47.982;11.516;2022-12-18T02:29:42;44.78;;;15.63;;
71106;SDS011;58763;47.982;11.516;2022-12-18T02:32:14;44.83;;;15.98;;
71106;SDS011;58763;47.982;11.516;2022-12-18T02:34:43;48.25;;;16.38;;
71106;SDS011;58763;47.982;11.516;2022-12-18T02:37:12;43.75;;;15.63;;
71106;SDS011;58763;47.982;11.516;2022-12-18T02:39:41;45.88;;;15.75;;
71106;SDS011;58763;47.982;11.516;2022-12-18T02:42:09;40.10;;;15.50;;
71106;SDS011;58763;47.982;11.516;2022-12-18T02:44:43;43.67;;;16.35;;
71106;SDS011;58763;47.982;11.516;2022-12-18T02:47:11;43.42;;;15.77;;
71106;SDS011;58763;47.982;11.516;2022-12-18T02:49:42;48.78;;;16.00;;
71106;SDS011;58763;47.982;11.516;2022-12-18T02:52:28;41.92;;;15.07;;
71106;SDS011;58763;47.982;11.516;2022-12-18T02:55:06;46.70;;;15.27;;
71106;SDS011;58763;47.982;11.516;2022-12-18T02:57:44;42.40;;;15.85;;
71106;SDS011;58763;47.982;11.516;2022-12-18T03:00:24;49.20;;;16.15;;
71106;SDS011;58763;47.982;11.516;2022-12-18T03:02:59;41.90;;;15.65;;
71106;SDS011;58763;47.982;11.516;2022-12-18T03:05:50;40.42;;;15.02;;
71106;SDS011;58763;47.982;11.516;2022-12-18T03:08:27;46.35;;;16.20;;
71106;SDS011;58763;47.982;11.516;2022-12-18T03:11:03;45.33;;;14.68;;
71106;SDS011;58763;47.982;11.516;2022-12-18T03:13:32;47.35;;;15.18;;
71106;SDS011;58763;47.982;11.516;2022-12-18T03:16:02;40.97;;;14.95;;
71106;SDS011;58763;47.982;11.516;2022-12-18T03:18:33;47.35;;;15.25;;
71106;SDS011;58763;47.982;11.516;2022-12-18T03:21:21;41.85;;;14.88;;
71106;SDS011;58763;47.982;11.516;2022-12-18T03:23:50;49.72;;;16.00;;
71106;SDS011;58763;47.982;11.516;2022-12-18T03:26:19;43.85;;;15.63;;
71106;SDS011;58763;47.982;11.516;2022-12-18T03:28:50;45.10;;;15.85;;
71106;SDS011;58763;47.982;11.516;2022-12-18T03:31:19;46.78;;;16.13;;
71106;SDS011;58763;47.982;11.516;2022-12-18T03:33:54;45.63;;;16.60;;
71106;SDS011;58763;47.982;11.516;2022-12-18T03:36:22;44.47;;;16.45;;
71106;SDS011;58763;47.982;11.516;2022-12-18T03:38:48;41.22;;;15.07;;
71106;SDS011;58763;47.982;11.516;2022-12-18T03:43:54;46.08;;;15.90;;
71106;SDS011;58763;47.982;11.516;2022-12-18T03:46:33;44.92;;;16.17;;
71106;SDS011;58763;47.982;11.516;2022-12-18T03:52:07;44.95;;;15.75;;
71106;SDS011;58763;47.982;11.516;2022-12-18T03:54:36;42.45;;;15.02;;
71106;SDS011;58763;47.982;11.516;2022-12-18T03:57:09;43.30;;;16.05;;
71106;SDS011;58763;47.982;11.516;2022-12-18T03:59:38;48.83;;;16.35;;
71106;SDS011;58763;47.982;11.516;2022-12-18T04:02:06;43.30;;;15.40;;
71106;SDS011;58763;47.982;11.516;2022-12-18T04:04:34;40.20;;;14.60;;
71106;SDS011;58763;47.982;11.516;2022-12-18T04:07:03;42.13;;;15.00;;
71106;SDS011;58763;47.982;11.516;2022-12-18T04:09:30;47.67;;;16.92;;
71106;SDS011;58763;47.982;11.516;2022-12-18T04:11:58;42.92;;;14.90;;
71106;SDS011;58763;47.982;11.516;2022-12-18T04:14:24;43.97;;;15.85;;
71106;SDS011;58763;47.982;11.516;2022-12-18T04:16:49;45.28;;;15.98;;
71106;SDS011;58763;47.982;11.516;2022-12-18T04:19:15;45.60;;;15.60;;
71106;SDS011;58763;47.982;11.516;2022-12-18T04:21:41;42.63;;;15.13;;
71106;SDS011;58763;47.982;11.516;2022-12-18T04:24:06;41.53;;;15.05;;
71106;SDS011;58763;47.982;11.516;2022-12-18T04:26:32;40.90;;;15.73;;
71106;SDS011;58763;47.982;11.516;2022-12-18T04:28:57;39.53;;;15.85;;
71106;SDS011;58763;47.982;11.516;2022-12-18T04:31:23;43.20;;;15.82;;
71106;SDS011;58763;47.982;11.516;2022-12-18T04:33:48;43.42;;;15.95;;
71106;SDS011;58763;47.982;11.516;2022-12-18T04:36:14;41.50;;;16.40;;
71106;SDS011;58763;47.982;11.516;2022-12-18T04:38:39;41.80;;;15.55;;
71106;SDS011;58763;47.982;11.516;2022-12-18T04:41:05;48.55;;;16.25;;
71106;SDS011;58763;47.982;11.516;2022-12-18T04:43:31;40.28;;;16.55;;
71106;SDS011;58763;47.982;11.516;2022-12-18T04:46:02;47.22;;;16.67;;
71106;SDS011;58763;47.982;11.516;2022-12-18T04:48:29;46.60;;;16.80;;
71106;SDS011;58763;47.982;11.516;2022-12-18T04:50:54;43.97;;;14.82;;
71106;SDS011;58763;47.982;11.516;2022-12-18T04:53:20;45.63;;;15.63;;
71106;SDS011;58763;47.982;11.516;2022-12-18T04:55:45;41.67;;;14.82;;
71106;SDS011;58763;47.982;11.516;2022-12-18T04:58:11;46.95;;;15.82;;
71106;SDS011;58763;47.982;11.516;2022-12-18T05:00:36;43.47;;;15.77;;
71106;SDS011;58763;47.982;11.516;2022-12-18T05:03:02;44.67;;;15.25;;
71106;SDS011;58763;47.982;11.516;2022-12-18T05:05:28;44.35;;;17.08;;
71106;SDS011;58763;47.982;11.516;2022-12-18T05:07:53;44.20;;;16.38;;
71106;SDS011;58763;47.982;11.516;2022-12-18T05:10:19;42.17;;;15.10;;
71106;SDS011;58763;47.982;11.516;2022-12-18T05:12:44;41.80;;;17.27;;
71106;SDS011;58763;47.982;11.516;2022-12-18T05:15:31;46.95;;;15.60;;
71106;SDS011;58763;47.982;11.516;2022-12-18T05:17:58;43.50;;;15.82;;
71106;SDS011;58763;47.982;11.516;2022-12-18T05:20:24;40.92;;;15.68;;
71106;SDS011;58763;47.982;11.516;2022-12-18T05:22:51;39.45;;;15.85;;
71106;SDS011;58763;47.982;11.516;2022-12-18T05:25:17;42.63;;;16.13;;
71106;SDS011;58763;47.982;11.516;2022-12-18T05:27:44;42.20;;;15.55;;
71106;SDS011;58763;47.982;11.516;2022-12-18T05:30:10;40.30;;;15.82;;
71106;SDS011;58763;47.982;11.516;2022-12-18T05:32:36;41.17;;;15.95;;
71106;SDS011;58763;47.982;11.516;2022-12-18T05:35:02;42.65;;;16.27;;
71106;SDS011;58763;47.982;11.516;2022-12-18T05:37:29;41.20;;;15.30;;
71106;SDS011;58763;47.982;11.516;2022-12-18T05:39:55;46.15;;;16.33;;
71106;SDS011;58763;47.982;11.516;2022-12-18T05:42:21;43.83;;;15.57;;
71106;SDS011;58763;47.982;11.516;2022-12-18T05:44:48;42.13;;;15.45;;
71106;SDS011;58763;47.982;11.516;2022-12-18T05:47:13;41.50;;;16.35;;
71106;SDS011;58763;47.982;11.516;2022-12-18T05:49:39;40.60;;;15.75;;
71106;SDS011;58763;47.982;11.516;2022-12-18T05:52:04;48.88;;;16.75;;
71106;SDS011;58763;47.982;11.516;2022-12-18T05:54:30;44.28;;;16.75;;
71106;SDS011;58763;47.982;11.516;2022-12-18T05:56:56;41.20;;;15.15;;
71106;SDS011;58763;47.982;11.516;2022-12-18T05:59:22;40.83;;;15.32;;
71106;SDS011;58763;47.982;11.516;2022-12-18T06:01:48;38.53;;;15.00;;
71106;SDS011;58763;47.982;11.516;2022-12-18T06:04:13;44.78;;;15.52;;
71106;SDS011;58763;47.982;11.516;2022-12-18T06:06:39;41.88;;;15.40;;
71106;SDS011;58763;47.982;11.516;2022-12-18T06:09:04;45.17;;;16.13;;
71106;SDS011;58763;47.982;11.516;2022-12-18T06:11:37;47.60;;;17.08;;
71106;SDS011;58763;47.982;11.516;2022-12-18T06:14:04;46.58;;;16.70;;
71106;SDS011;58763;47.982;11.516;2022-12-18T06:16:30;44.50;;;16.45;;
71106;SDS011;58763;47.982;11.516;2022-12-18T06:18:57;47.45;;;17.77;;
71106;SDS011;58763;47.982;11.516;2022-12-18T06:21:26;39.47;;;16.48;;
71106;SDS011;58763;47.982;11.516;2022-12-18T06:23:52;42.22;;;16.67;;
71106;SDS011;58763;47.982;11.516;2022-12-18T06:26:18;40.10;;;15.65;;
71106;SDS011;58763;47.982;11.516;2022-12-18T06:28:44;44.30;;;16.88;;
71106;SDS011;58763;47.982;11.516;2022-12-18T06:31:09;45.15;;;16.63;;
71106;SDS011;58763;47.982;11.516;2022-12-18T06:33:36;42.15;;;16.45;;
71106;SDS011;58763;47.982;11.516;2022-12-18T06:36:06;44.08;;;15.18;;
71106;SDS011;58763;47.982;11.516;2022-12-18T06:38:33;44.23;;;15.83;;
71106;SDS011;58763;47.982;11.516;2022-12-18T06:41:00;38.65;;;14.80;;
71106;SDS011;58763;47.982;11.516;2022-12-18T06:43:26;38.17;;;14.93;;
71106;SDS011;58763;47.982;11.516;2022-12-18T06:45:57;39.58;;;14.85;;
71106;SDS011;58763;47.982;11.516;2022-12-18T06:48:24;39.08;;;14.48;;
71106;SDS011;58763;47.982;11.516;2022-12-18T06:50:49;41.78;;;14.68;;
71106;SDS011;58763;47.982;11.516;2022-12-18T06:53:15;37.60;;;14.98;;
71106;SDS011;58763;47.982;11.516;2022-12-18T06:55:40;36.05;;;14.65;;
71106;SDS011;58763;47.982;11.516;2022-12-18T06:58:06;43.28;;;14.88;;
71106;SDS011;58763;47.982;11.516;2022-12-18T07:00:32;39.78;;;14.88;;
71106;SDS011;58763;47.982;11.516;2022-12-18T07:02:58;35.50;;;14.60;;
71106;SDS011;58763;47.982;11.516;2022-12-18T07:05:24;38.95;;;15.25;;
71106;SDS011;58763;47.982;11.516;2022-12-18T07:07:50;34.67;;;13.63;;
71106;SDS011;58763;47.982;11.516;2022-12-18T07:10:15;37.63;;;13.90;;
71106;SDS011;58763;47.982;11.516;2022-12-18T07:12:41;33.83;;;13.70;;
71106;SDS011;58763;47.982;11.516;2022-12-18T07:15:07;39.47;;;14.85;;
71106;SDS011;58763;47.982;11.516;2022-12-18T07:17:32;37.97;;;14.95;;
71106;SDS011;58763;47.982;11.516;2022-12-18T07:19:58;34.25;;;13.18;;
71106;SDS011;58763;47.982;11.516;2022-12-18T07:22:27;38.03;;;14.07;;
71106;SDS011;58763;47.982;11.516;2022-12-18T07:24:52;38.25;;;13.35;;
71106;SDS011;58763;47.982;11.516;2022-12-18T07:27:18;42.63;;;15.30;;
71106;SDS011;58763;47.982;11.516;2022-12-18T07:29:43;36.22;;;13.98;;
71106;SDS011;58763;47.982;11.516;2022-12-18T07:32:09;33.17;;;13.38;;
71106;SDS011;58763;47.982;11.516;2022-12-18T07:34:35;36.72;;;14.10;;
71106;SDS011;58763;47.982;11.516;2022-12-18T07:37:00;34.58;;;13.98;;
71106;SDS011;58763;47.982;11.516;2022-12-18T07:39:26;39.17;;;14.15;;
71106;SDS011;58763;47.982;11.516;2022-12-18T07:41:52;34.80;;;13.55;;
71106;SDS011;58763;47.982;11.516;2022-12-18T07:44:36;36.97;;;13.55;;
71106;SDS011;58763;47.982;11.516;2022-12-18T07:47:03;34.45;;;13.00;;
71106;SDS011;58763;47.982;11.516;2022-12-18T07:49:28;36.58;;;14.23;;
71106;SDS011;58763;47.982;11.516;2022-12-18T07:51:55;40.03;;;14.65;;
71106;SDS011;58763;47.982;11.516;2022-12-18T07:54:22;40.88;;;14.52;;
71106;SDS011;58763;47.982;11.516;2022-12-18T07:56:48;37.55;;;14.57;;
71106;SDS011;58763;47.982;11.516;2022-12-18T07:59:13;39.17;;;14.02;;
71106;SDS011;58763;47.982;11.516;2022-12-18T08:01:39;41.03;;;14.43;;
71106;SDS011;58763;47.982;11.516;2022-12-18T08:04:05;36.97;;;14.13;;
71106;SDS011;58763;47.982;11.516;2022-12-18T08:06:30;38.08;;;14.40;;
71106;SDS011;58763;47.982;11.516;2022-12-18T08:08:56;34.08;;;14.20;;
71106;SDS011;58763;47.982;11.516;2022-12-18T08:11:22;40.33;;;15.98;;
71106;SDS011;58763;47.982;11.516;2022-12-18T08:13:48;38.95;;;14.02;;
71106;SDS011;58763;47.982;11.516;2022-12-18T08:16:14;39.85;;;14.57;;
71106;SDS011;58763;47.982;11.516;2022-12-18T08:18:40;41.20;;;15.23;;
71106;SDS011;58763;47.982;11.516;2022-12-18T08:23:34;40.70;;;14.65;;
71106;SDS011;58763;47.982;11.516;2022-12-18T08:26:00;36.78;;;14.40;;
71106;SDS011;58763;47.982;11.516;2022-12-18T08:28:26;39.25;;;14.45;;
71106;SDS011;58763;47.982;11.516;2022-12-18T08:30:52;39.55;;;14.30;;
71106;SDS011;58763;47.982;11.516;2022-12-18T08:33:18;36.10;;;13.30;;
71106;SDS011;58763;47.982;11.516;2022-12-18T08:35:43;39.47;;;14.02;;
71106;SDS011;58763;47.982;11.516;2022-12-18T08:38:09;35.85;;;13.50;;
71106;SDS011;58763;47.982;11.516;2022-12-18T08:40:34;36.80;;;13.57;;
71106;SDS011;58763;47.982;11.516;2022-12-18T08:43:00;40.10;;;14.38;;
71106;SDS011;58763;47.982;11.516;2022-12-18T08:45:44;38.17;;;15.60;;
71106;SDS011;58763;47.982;11.516;2022-12-18T08:48:09;36.75;;;15.00;;
71106;SDS011;58763;47.982;11.516;2022-12-18T08:50:35;40.13;;;15.02;;
71106;SDS011;58763;47.982;11.516;2022-12-18T08:53:00;34.45;;;13.70;;
71106;SDS011;58763;47.982;11.516;2022-12-18T08:55:27;37.00;;;14.25;;
71106;SDS011;58763;47.982;11.516;2022-12-18T08:57:52;37.83;;;12.93;;
71106;SDS011;58763;47.982;11.516;2022-12-18T09:00:18;33.47;;;13.60;;
71106;SDS011;58763;47.982;11.516;2022-12-18T09:02:43;34.60;;;11.93;;
71106;SDS011;58763;47.982;11.516;2022-12-18T09:05:09;33.53;;;13.80;;
71106;SDS011;58763;47.982;11.516;2022-12-18T09:07:35;37.22;;;13.32;;
71106;SDS011;58763;47.982;11.516;2022-12-18T09:10:00;36.03;;;13.77;;
71106;SDS011;58763;47.982;11.516;2022-12-18T09:12:26;39.22;;;13.88;;
71106;SDS011;58763;47.982;11.516;2022-12-18T09:14:51;38.95;;;14.30;;
71106;SDS011;58763;47.982;11.516;2022-12-18T09:17:17;32.05;;;13.57;;
71106;SDS011;58763;47.982;11.516;2022-12-18T09:19:43;36.92;;;14.23;;
71106;SDS011;58763;47.982;11.516;2022-12-18T09:22:09;35.80;;;13.80;;
71106;SDS011;58763;47.982;11.516;2022-12-18T09:24:34;35.58;;;13.07;;
71106;SDS011;58763;47.982;11.516;2022-12-18T09:27:00;36.83;;;13.98;;
71106;SDS011;58763;47.982;11.516;2022-12-18T09:29:26;36.60;;;14.00;;
71106;SDS011;58763;47.982;11.516;2022-12-18T09:31:51;36.88;;;13.52;;
71106;SDS011;58763;47.982;11.516;2022-12-18T09:34:17;42.42;;;14.70;;
71106;SDS011;58763;47.982;11.516;2022-12-18T09:36:43;35.40;;;14.43;;
71106;SDS011;58763;47.982;11.516;2022-12-18T09:39:08;36.13;;;13.98;;
71106;SDS011;58763;47.982;11.516;2022-12-18T09:46:52;32.67;;;12.75;;
71106;SDS011;58763;47.982;11.516;2022-12-18T09:49:28;31.73;;;12.60;;
71106;SDS011;58763;47.982;11.516;2022-12-18T09:54:40;31.88;;;12.15;;
71106;SDS011;58763;47.982;11.516;2022-12-18T09:57:10;32.88;;;11.95;;
71106;SDS011;58763;47.982;11.516;2022-12-18T09:59:46;31.00;;;12.02;;
71106;SDS011;58763;47.982;11.516;2022-12-18T10:02:22;33.85;;;12.30;;
71106;SDS011;58763;47.982;11.516;2022-12-18T10:05:03;34.55;;;12.15;;
71106;SDS011;58763;47.982;11.516;2022-12-18T10:08:33;33.33;;;12.38;;
71106;SDS011;58763;47.982;11.516;2022-12-18T10:10:51;29.95;;;11.13;;
71106;SDS011;58763;47.982;11.516;2022-12-18T10:16:02;30.38;;;11.55;;
71106;SDS011;58763;47.982;11.516;2022-12-18T10:19:16;34.50;;;12.70;;
71106;SDS011;58763;47.982;11.516;2022-12-18T10:24:52;30.90;;;11.50;;
71106;SDS011;58763;47.982;11.516;2022-12-18T10:27:24;31.70;;;11.93;;
71106;SDS011;58763;47.982;11.516;2022-12-18T10:29:51;30.90;;;11.85;;
71106;SDS011;58763;47.982;11.516;2022-12-18T10:32:25;29.95;;;12.45;;
71106;SDS011;58763;47.982;11.516;2022-12-18T10:34:54;30.52;;;11.98;;
71106;SDS011;58763;47.982;11.516;2022-12-18T10:37:26;33.67;;;12.25;;
71106;SDS011;58763;47.982;11.516;2022-12-18T10:40:08;33.38;;;12.55;;
71106;SDS011;58763;47.982;11.516;2022-12-18T10:42:34;33.95;;;14.30;;
71106;SDS011;58763;47.982;11.516;2022-12-18T10:45:05;36.40;;;12.93;;
71106;SDS011;58763;47.982;11.516;2022-12-18T10:47:35;37.00;;;14.60;;
71106;SDS011;58763;47.982;11.516;2022-12-18T10:50:11;29.42;;;11.48;;
71106;SDS011;58763;47.982;11.516;2022-12-18T10:53:03;37.53;;;16.60;;
71106;SDS011;58763;47.982;11.516;2022-12-18T10:55:39;35.28;;;14.75;;
71106;SDS011;58763;47.982;11.516;2022-12-18T10:58:23;35.78;;;13.55;;
71106;SDS011;58763;47.982;11.516;2022-12-18T11:03:41;34.78;;;14.77;;
71106;SDS011;58763;47.982;11.516;2022-12-18T11:06:17;39.92;;;16.42;;
71106;SDS011;58763;47.982;11.516;2022-12-18T11:09:00;33.90;;;13.73;;
71106;SDS011;58763;47.982;11.516;2022-12-18T11:11:30;31.75;;;13.35;;
71106;SDS011;58763;47.982;11.516;2022-12-18T11:14:02;36.10;;;14.70;;
71106;SDS011;58763;47.982;11.516;2022-12-18T11:16:43;30.98;;;13.40;;
71106;SDS011;58763;47.982;11.516;2022-12-18T11:21:49;31.65;;;11.88;;
71106;SDS011;58763;47.982;11.516;2022-12-18T11:24:32;32.45;;;12.40;;
71106;SDS011;58763;47.982;11.516;2022-12-18T11:27:00;35.22;;;12.73;;
71106;SDS011;58763;47.982;11.516;2022-12-18T11:34:39;28.83;;;11.60;;
71106;SDS011;58763;47.982;11.516;2022-12-18T11:37:10;29.20;;;11.27;;
71106;SDS011;58763;47.982;11.516;2022-12-18T11:39:42;30.92;;;12.55;;
71106;SDS011;58763;47.982;11.516;2022-12-18T11:44:48;32.97;;;12.27;;
71106;SDS011;58763;47.982;11.516;2022-12-18T11:50:12;27.58;;;11.82;;
71106;SDS011;58763;47.982;11.516;2022-12-18T11:52:42;34.38;;;12.95;;
71106;SDS011;58763;47.982;11.516;2022-12-18T11:55:12;31.13;;;13.02;;
71106;SDS011;58763;47.982;11.516;2022-12-18T12:00:51;33.53;;;11.88;;
71106;SDS011;58763;47.982;11.516;2022-12-18T12:03:43;32.92;;;12.65;;
71106;SDS011;58763;47.982;11.516;2022-12-18T12:17:23;30.98;;;13.38;;
71106;SDS011;58763;47.982;11.516;2022-12-18T12:20:06;36.60;;;13.88;;
71106;SDS011;58763;47.982;11.516;2022-12-18T12:33:40;84.65;;;27.73;;
71106;SDS011;58763;47.982;11.516;2022-12-18T12:36:18;117.75;;;35.72;;
71106;SDS011;58763;47.982;11.516;2022-12-18T12:38:59;109.30;;;36.53;;
71106;SDS011;58763;47.982;11.516;2022-12-18T12:41:31;40.70;;;18.70;;
71106;SDS011;58763;47.982;11.516;2022-12-18T12:44:22;30.67;;;13.20;;
71106;SDS011;58763;47.982;11.516;2022-12-18T12:46:52;33.15;;;13.73;;
71106;SDS011;58763;47.982;11.516;2022-12-18T12:49:21;36.42;;;15.35;;
71106;SDS011;58763;47.982;11.516;2022-12-18T12:52:04;31.90;;;13.90;;
71106;SDS011;58763;47.982;11.516;2022-12-18T12:54:32;38.53;;;17.25;;
71106;SDS011;58763;47.982;11.516;2022-12-18T12:57:10;34.75;;;14.52;;
71106;SDS011;58763;47.982;11.516;2022-12-18T13:02:30;30.83;;;12.73;;
71106;SDS011;58763;47.982;11.516;2022-12-18T13:07:54;28.85;;;12.55;;
71106;SDS011;58763;47.982;11.516;2022-12-18T13:13:04;34.65;;;13.02;;
71106;SDS011;58763;47.982;11.516;2022-12-18T13:20:34;28.23;;;12.05;;
71106;SDS011;58763;47.982;11.516;2022-12-18T13:25:49;30.35;;;12.55;;
71106;SDS011;58763;47.982;11.516;2022-12-18T13:29:00;33.03;;;14.25;;
71106;SDS011;58763;47.982;11.516;2022-12-18T13:31:10;30.20;;;12.48;;
71106;SDS011;58763;47.982;11.516;2022-12-18T13:33:37;33.58;;;12.90;;
71106;SDS011;58763;47.982;11.516;2022-12-18T13:39:20;27.92;;;11.07;;
71106;SDS011;58763;47.982;11.516;2022-12-18T13:41:53;31.60;;;12.15;;
71106;SDS011;58763;47.982;11.516;2022-12-18T13:44:59;31.20;;;11.55;;
71106;SDS011;58763;47.982;11.516;2022-12-18T13:47:35;30.08;;;11.43;;
71106;SDS011;58763;47.982;11.516;2022-12-18T13:50:11;33.13;;;12.50;;
71106;SDS011;58763;47.982;11.516;2022-12-18T13:52:48;28.02;;;11.52;;
71106;SDS011;58763;47.982;11.516;2022-12-18T13:55:17;29.80;;;11.57;;
71106;SDS011;58763;47.982;11.516;2022-12-18T13:57:45;27.63;;;11.80;;
71106;SDS011;58763;47.982;11.516;2022-12-18T14:02:54;47.35;;;16.70;;
71106;SDS011;58763;47.982;11.516;2022-12-18T14:05:27;36.35;;;13.68;;
71106;SDS011;58763;47.982;11.516;2022-12-18T14:08:01;36.35;;;14.05;;
71106;SDS011;58763;47.982;11.516;2022-12-18T14:10:31;42.45;;;14.82;;
71106;SDS011;58763;47.982;11.516;2022-12-18T14:12:57;37.15;;;14.90;;
71106;SDS011;58763;47.982;11.516;2022-12-18T14:15:31;43.40;;;15.57;;
71106;SDS011;58763;47.982;11.516;2022-12-18T14:21:02;61.78;;;21.05;;
71106;SDS011;58763;47.982;11.516;2022-12-18T14:23:31;50.80;;;17.55;;
71106;SDS011;58763;47.982;11.516;2022-12-18T14:26:20;32.75;;;13.52;;
71106;SDS011;58763;47.982;11.516;2022-12-18T14:28:59;33.25;;;12.88;;
71106;SDS011;58763;47.982;11.516;2022-12-18T14:31:27;82.25;;;22.58;;
71106;SDS011;58763;47.982;11.516;2022-12-18T14:33:55;72.03;;;23.10;;
71106;SDS011;58763;47.982;11.516;2022-12-18T14:36:22;52.15;;;18.35;;
71106;SDS011;58763;47.982;11.516;2022-12-18T14:38:50;303.80;;;71.97;;
71106;SDS011;58763;47.982;11.516;2022-12-18T14:41:20;285.63;;;66.25;;
71106;SDS011;58763;47.982;11.516;2022-12-18T14:43:52;465.77;;;108.20;;
71106;SDS011;58763;47.982;11.516;2022-12-18T14:49:05;603.00;;;137.57;;
71106;SDS011;58763;47.982;11.516;2022-12-18T14:51:55;205.45;;;56.95;;
71106;SDS011;58763;47.982;11.516;2022-12-18T14:54:25;43.33;;;18.40;;
71106;SDS011;58763;47.982;11.516;2022-12-18T14:57:06;64.78;;;23.38;;
71106;SDS011;58763;47.982;11.516;2022-12-18T14:59:46;40.97;;;15.98;;
71106;SDS011;58763;47.982;11.516;2022-12-18T15:04:45;35.28;;;13.15;;
71106;SDS011;58763;47.982;11.516;2022-12-18T15:07:15;37.17;;;13.02;;
71106;SDS011;58763;47.982;11.516;2022-12-18T15:10:09;33.03;;;13.73;;
71106;SDS011;58763;47.982;11.516;2022-12-18T15:12:50;35.20;;;13.15;;
71106;SDS011;58763;47.982;11.516;2022-12-18T15:20:56;33.13;;;13.35;;
71106;SDS011;58763;47.982;11.516;2022-12-18T15:26:10;35.75;;;13.55;;
71106;SDS011;58763;47.982;11.516;2022-12-18T15:33:41;35.97;;;13.30;;
71106;SDS011;58763;47.982;11.516;2022-12-18T15:36:15;39.92;;;13.60;;
71106;SDS011;58763;47.982;11.516;2022-12-18T15:38:45;32.95;;;13.18;;
71106;SDS011;58763;47.982;11.516;2022-12-18T15:41:16;37.65;;;14.30;;
71106;SDS011;58763;47.982;11.516;2022-12-18T15:43:44;37.80;;;13.45;;
71106;SDS011;58763;47.982;11.516;2022-12-18T15:46:11;33.58;;;13.93;;
71106;SDS011;58763;47.982;11.516;2022-12-18T15:48:42;33.28;;;13.52;;
71106;SDS011;58763;47.982;11.516;2022-12-18T15:51:31;32.75;;;13.45;;
71106;SDS011;58763;47.982;11.516;2022-12-18T15:54:01;32.08;;;12.95;;
71106;SDS011;58763;47.982;11.516;2022-12-18T15:56:29;30.33;;;12.73;;
71106;SDS011;58763;47.982;11.516;2022-12-18T15:59:14;34.95;;;13.68;;
71106;SDS011;58763;47.982;11.516;2022-12-18T16:01:41;35.95;;;14.65;;
71106;SDS011;58763;47.982;11.516;2022-12-18T16:04:12;37.75;;;13.52;;
71106;SDS011;58763;47.982;11.516;2022-12-18T16:06:41;36.08;;;14.55;;
71106;SDS011;58763;47.982;11.516;2022-12-18T16:09:07;38.30;;;13.90;;
71106;SDS011;58763;47.982;11.516;2022-12-18T16:11:33;38.65;;;14.48;;
71106;SDS011;58763;47.982;11.516;2022-12-18T16:14:05;40.20;;;14.85;;
71106;SDS011;58763;47.982;11.516;2022-12-18T16:16:52;35.22;;;14.38;;
71106;SDS011;58763;47.982;11.516;2022-12-18T16:19:26;31.45;;;13.05;;
71106;SDS011;58763;47.982;11.516;2022-12-18T16:21:52;40.63;;;14.13;;
71106;SDS011;58763;47.982;11.516;2022-12-18T16:24:27;41.95;;;13.88;;
71106;SDS011;58763;47.982;11.516;2022-12-18T16:26:55;39.83;;;14.30;;
71106;SDS011;58763;47.982;11.516;2022-12-18T16:29:22;35.30;;;14.10;;
71106;SDS011;58763;47.982;11.516;2022-12-18T16:31:51;35.65;;;14.18;;
71106;SDS011;58763;47.982;11.516;2022-12-18T16:34:24;39.08;;;13.65;;